sensor_id;sensor_type;location;lat;lon;timestamp;temperature;humidity
38726;DHT22;24474;48.906;8.808;2022-12-10T00:01:53;1.70;99.90
38726;DHT22;24474;48.906;8.808;2022-12-10T00:04:20;1.70;99.90
38726;DHT22;24474;48.906;8.808;2022-12-10T00:06:46;1.70;99.90
38726;DHT22;24474;48.906;8.808;2022-12-10T00:09:14;1.70;99.90
38726;DHT22;24474;48.906;8.808;2022-12-10T00:11:41;1.80;99.90
38726;DHT22;24474;48.906;8.808;2022-12-10T00:14:07;1.70;99.90
38726;DHT22;24474;48.906;8.808;2022-12-10T00:16:33;1.70;99.90
38726;DHT22;24474;48.906;8.808;2022-12-10T00:18:59;1.70;99.90
38726;DHT22;24474;48.906;8.808;2022-12-10T00:21:29;1.70;99.90
38726;DHT22;24474;48.906;8.808;2022-12-10T00:23:55;1.70;99.90
38726;DHT22;24474;48.906;8.808;2022-12-10T00:26:30;1.70;99.90
38726;DHT22;24474;48.906;8.808;2022-12-10T00:28:56;1.70;99.90
38726;DHT22;24474;48.906;8.808;2022-12-10T00:31:28;1.70;99.90
38726;DHT22;24474;48.906;8.808;2022-12-10T00:33:58;1.70;99.90
38726;DHT22;24474;48.906;8.808;2022-12-10T00:36:31;1.70;99.90
38726;DHT22;24474;48.906;8.808;2022-12-10T00:38:57;1.70;99.90
38726;DHT22;24474;48.906;8.808;2022-12-10T00:41:23;1.70;99.90
38726;DHT22;24474;48.906;8.808;2022-12-10T00:43:48;1.70;99.90
38726;DHT22;24474;48.906;8.808;2022-12-10T00:46:14;1.70;99.90
38726;DHT22;24474;48.906;8.808;2022-12-10T00:48:41;1.70;99.90
38726;DHT22;24474;48.906;8.808;2022-12-10T00:53:34;1.70;99.90
38726;DHT22;24474;48.906;8.808;2022-12-10T00:56:00;1.70;99.90
38726;DHT22;24474;48.906;8.808;2022-12-10T00:58:27;1.70;99.90
38726;DHT22;24474;48.906;8.808;2022-12-10T01:00:52;1.70;99.90
38726;DHT22;24474;48.906;8.808;2022-12-10T01:06:25;1.70;99.90
38726;DHT22;24474;48.906;8.808;2022-12-10T01:08:52;1.70;99.90
38726;DHT22;24474;48.906;8.808;2022-12-10T01:11:18;1.70;99.90
38726;DHT22;24474;48.906;8.808;2022-12-10T01:13:44;1.70;99.90
38726;DHT22;24474;48.906;8.808;2022-12-10T01:16:10;1.70;99.90
38726;DHT22;24474;48.906;8.808;2022-12-10T01:18:36;1.60;99.90
38726;DHT22;24474;48.906;8.808;2022-12-10T01:21:05;1.70;99.90
38726;DHT22;24474;48.906;8.808;2022-12-10T01:23:32;1.70;99.90
38726;DHT22;24474;48.906;8.808;2022-12-10T01:25:59;1.70;99.90
38726;DHT22;24474;48.906;8.808;2022-12-10T01:28:24;1.60;99.90
38726;DHT22;24474;48.906;8.808;2022-12-10T01:30:50;1.70;99.90
38726;DHT22;24474;48.906;8.808;2022-12-10T01:33:15;1.70;99.90
38726;DHT22;24474;48.906;8.808;2022-12-10T01:35:41;1.60;99.90
38726;DHT22;24474;48.906;8.808;2022-12-10T01:38:06;1.70;99.90
38726;DHT22;24474;48.906;8.808;2022-12-10T01:40:36;1.60;99.90
38726;DHT22;24474;48.906;8.808;2022-12-10T01:43:01;1.60;99.90
38726;DHT22;24474;48.906;8.808;2022-12-10T01:45:27;1.70;99.90
38726;DHT22;24474;48.906;8.808;2022-12-10T01:47:52;1.60;99.90
38726;DHT22;24474;48.906;8.808;2022-12-10T01:50:18;1.70;99.90
38726;DHT22;24474;48.906;8.808;2022-12-10T01:52:44;1.60;99.90
38726;DHT22;24474;48.906;8.808;2022-12-10T01:55:36;1.60;99.90
38726;DHT22;24474;48.906;8.808;2022-12-10T01:57:56;1.60;99.90
38726;DHT22;24474;48.906;8.808;2022-12-10T02:00:21;1.60;99.90
38726;DHT22;24474;48.906;8.808;2022-12-10T02:02:51;1.70;99.90
38726;DHT22;24474;48.906;8.808;2022-12-10T02:05:22;1.60;99.90
38726;DHT22;24474;48.906;8.808;2022-12-10T02:10:36;1.60;99.90
38726;DHT22;24474;48.906;8.808;2022-12-10T02:13:07;1.60;99.90
38726;DHT22;24474;48.906;8.808;2022-12-10T02:15:38;1.60;99.90
38726;DHT22;24474;48.906;8.808;2022-12-10T02:18:18;1.60;99.90
38726;DHT22;24474;48.906;8.808;2022-12-10T02:20:49;1.60;99.90
38726;DHT22;24474;48.906;8.808;2022-12-10T02:23:23;1.60;99.90
38726;DHT22;24474;48.906;8.808;2022-12-10T02:28:21;1.60;99.90
38726;DHT22;24474;48.906;8.808;2022-12-10T02:30:47;1.60;99.90
38726;DHT22;24474;48.906;8.808;2022-12-10T02:33:14;1.60;99.90
38726;DHT22;24474;48.906;8.808;2022-12-10T02:35:41;1.50;99.90
38726;DHT22;24474;48.906;8.808;2022-12-10T02:38:09;1.60;99.90
38726;DHT22;24474;48.906;8.808;2022-12-10T02:40:36;1.50;99.90
38726;DHT22;24474;48.906;8.808;2022-12-10T02:43:03;1.50;99.90
38726;DHT22;24474;48.906;8.808;2022-12-10T02:45:29;1.50;99.90
38726;DHT22;24474;48.906;8.808;2022-12-10T02:47:56;1.50;99.90
38726;DHT22;24474;48.906;8.808;2022-12-10T02:50:23;1.50;99.90
38726;DHT22;24474;48.906;8.808;2022-12-10T02:52:48;1.50;99.90
38726;DHT22;24474;48.906;8.808;2022-12-10T02:55:14;1.50;99.90
38726;DHT22;24474;48.906;8.808;2022-12-10T03:00:16;1.40;99.90
38726;DHT22;24474;48.906;8.808;2022-12-10T03:07:46;1.30;99.90
38726;DHT22;24474;48.906;8.808;2022-12-10T03:10:15;1.30;99.90
38726;DHT22;24474;48.906;8.808;2022-12-10T03:12:50;1.30;99.90
38726;DHT22;24474;48.906;8.808;2022-12-10T03:15:18;1.20;99.90
38726;DHT22;24474;48.906;8.808;2022-12-10T03:17:44;1.20;99.90
38726;DHT22;24474;48.906;8.808;2022-12-10T03:20:12;1.20;99.90
38726;DHT22;24474;48.906;8.808;2022-12-10T03:22:38;1.20;99.90
38726;DHT22;24474;48.906;8.808;2022-12-10T03:25:05;1.20;99.90
38726;DHT22;24474;48.906;8.808;2022-12-10T03:27:30;1.30;99.90
38726;DHT22;24474;48.906;8.808;2022-12-10T03:29:57;1.20;99.90
38726;DHT22;24474;48.906;8.808;2022-12-10T03:32:24;1.20;99.90
38726;DHT22;24474;48.906;8.808;2022-12-10T03:34:51;1.20;99.90
38726;DHT22;24474;48.906;8.808;2022-12-10T03:37:18;1.20;99.90
38726;DHT22;24474;48.906;8.808;2022-12-10T03:39:44;1.30;99.90
38726;DHT22;24474;48.906;8.808;2022-12-10T03:42:09;1.30;99.90
38726;DHT22;24474;48.906;8.808;2022-12-10T03:44:35;1.20;99.90
38726;DHT22;24474;48.906;8.808;2022-12-10T03:47:02;1.30;99.90
38726;DHT22;24474;48.906;8.808;2022-12-10T03:49:28;1.30;99.90
38726;DHT22;24474;48.906;8.808;2022-12-10T03:51:54;1.30;99.90
38726;DHT22;24474;48.906;8.808;2022-12-10T03:54:20;1.30;99.90
38726;DHT22;24474;48.906;8.808;2022-12-10T03:56:45;1.30;99.90
38726;DHT22;24474;48.906;8.808;2022-12-10T03:59:11;1.30;99.90
38726;DHT22;24474;48.906;8.808;2022-12-10T04:01:36;1.30;99.90
38726;DHT22;24474;48.906;8.808;2022-12-10T04:04:05;1.30;99.90
38726;DHT22;24474;48.906;8.808;2022-12-10T04:06:31;1.30;99.90
38726;DHT22;24474;48.906;8.808;2022-12-10T04:08:56;1.30;99.90
38726;DHT22;24474;48.906;8.808;2022-12-10T04:11:22;1.30;99.90
38726;DHT22;24474;48.906;8.808;2022-12-10T04:13:49;1.20;99.90
38726;DHT22;24474;48.906;8.808;2022-12-10T04:16:33;1.20;99.90
38726;DHT22;24474;48.906;8.808;2022-12-10T04:21:25;1.30;99.90
38726;DHT22;24474;48.906;8.808;2022-12-10T04:24:10;1.30;99.90
38726;DHT22;24474;48.906;8.808;2022-12-10T04:26:54;1.30;99.90
38726;DHT22;24474;48.906;8.808;2022-12-10T04:31:45;1.30;99.90
38726;DHT22;24474;48.906;8.808;2022-12-10T04:34:11;1.30;99.90
38726;DHT22;24474;48.906;8.808;2022-12-10T04:36:38;1.20;99.90
38726;DHT22;24474;48.906;8.808;2022-12-10T04:39:03;1.30;99.90
38726;DHT22;24474;48.906;8.808;2022-12-10T04:41:29;1.30;99.90
38726;DHT22;24474;48.906;8.808;2022-12-10T04:43:55;1.30;99.90
38726;DHT22;24474;48.906;8.808;2022-12-10T04:46:23;1.30;99.90
38726;DHT22;24474;48.906;8.808;2022-12-10T04:48:48;1.30;99.90
38726;DHT22;24474;48.906;8.808;2022-12-10T04:51:16;1.30;99.90
38726;DHT22;24474;48.906;8.808;2022-12-10T04:53:42;1.30;99.90
38726;DHT22;24474;48.906;8.808;2022-12-10T04:56:07;1.30;99.90
38726;DHT22;24474;48.906;8.808;2022-12-10T04:58:33;1.30;99.90
38726;DHT22;24474;48.906;8.808;2022-12-10T05:01:05;1.20;99.90
38726;DHT22;24474;48.906;8.808;2022-12-10T05:03:31;1.20;99.90
38726;DHT22;24474;48.906;8.808;2022-12-10T05:06:07;1.30;99.90
38726;DHT22;24474;48.906;8.808;2022-12-10T05:08:33;1.20;99.90
38726;DHT22;24474;48.906;8.808;2022-12-10T05:11:06;1.20;99.90
38726;DHT22;24474;48.906;8.808;2022-12-10T05:13:31;1.20;99.90
38726;DHT22;24474;48.906;8.808;2022-12-10T05:15:57;1.20;99.90
38726;DHT22;24474;48.906;8.808;2022-12-10T05:18:22;1.20;99.90
38726;DHT22;24474;48.906;8.808;2022-12-10T05:20:49;1.20;99.90
38726;DHT22;24474;48.906;8.808;2022-12-10T05:23:15;1.20;99.90
38726;DHT22;24474;48.906;8.808;2022-12-10T05:26:06;1.20;99.90
38726;DHT22;24474;48.906;8.808;2022-12-10T05:28:33;1.20;99.90
38726;DHT22;24474;48.906;8.808;2022-12-10T05:30:59;1.20;99.90
38726;DHT22;24474;48.906;8.808;2022-12-10T05:33:26;1.20;99.90
38726;DHT22;24474;48.906;8.808;2022-12-10T05:36:00;1.20;99.90
38726;DHT22;24474;48.906;8.808;2022-12-10T05:38:26;1.20;99.90
38726;DHT22;24474;48.906;8.808;2022-12-10T05:40:52;1.20;99.90
38726;DHT22;24474;48.906;8.808;2022-12-10T05:43:18;1.20;99.90
38726;DHT22;24474;48.906;8.808;2022-12-10T05:45:44;1.20;99.90
38726;DHT22;24474;48.906;8.808;2022-12-10T05:48:10;1.20;99.90
38726;DHT22;24474;48.906;8.808;2022-12-10T05:50:36;1.20;99.90
38726;DHT22;24474;48.906;8.808;2022-12-10T05:53:02;1.20;99.90
38726;DHT22;24474;48.906;8.808;2022-12-10T05:55:28;1.20;99.90
38726;DHT22;24474;48.906;8.808;2022-12-10T05:57:54;1.20;99.90
38726;DHT22;24474;48.906;8.808;2022-12-10T06:00:20;1.20;99.90
38726;DHT22;24474;48.906;8.808;2022-12-10T06:02:49;1.20;99.90
38726;DHT22;24474;48.906;8.808;2022-12-10T06:05:15;1.20;99.90
38726;DHT22;24474;48.906;8.808;2022-12-10T06:07:40;1.20;99.90
38726;DHT22;24474;48.906;8.808;2022-12-10T06:10:06;1.20;99.90
38726;DHT22;24474;48.906;8.808;2022-12-10T06:12:32;1.20;99.90
38726;DHT22;24474;48.906;8.808;2022-12-10T06:14:57;1.20;99.90
38726;DHT22;24474;48.906;8.808;2022-12-10T06:17:23;1.10;99.90
38726;DHT22;24474;48.906;8.808;2022-12-10T06:19:50;1.10;99.90
38726;DHT22;24474;48.906;8.808;2022-12-10T06:22:16;1.10;99.90
38726;DHT22;24474;48.906;8.808;2022-12-10T06:24:41;1.10;99.90
38726;DHT22;24474;48.906;8.808;2022-12-10T06:27:08;1.10;99.90
38726;DHT22;24474;48.906;8.808;2022-12-10T06:29:33;1.10;99.90
38726;DHT22;24474;48.906;8.808;2022-12-10T06:31:59;1.10;99.90
38726;DHT22;24474;48.906;8.808;2022-12-10T06:34:26;1.10;99.90
38726;DHT22;24474;48.906;8.808;2022-12-10T06:36:52;1.10;99.90
38726;DHT22;24474;48.906;8.808;2022-12-10T06:39:17;1.10;99.90
38726;DHT22;24474;48.906;8.808;2022-12-10T06:41:43;1.00;99.90
38726;DHT22;24474;48.906;8.808;2022-12-10T06:44:10;1.10;99.90
38726;DHT22;24474;48.906;8.808;2022-12-10T06:46:35;1.10;99.90
38726;DHT22;24474;48.906;8.808;2022-12-10T06:49:03;1.10;99.90
38726;DHT22;24474;48.906;8.808;2022-12-10T06:51:28;1.10;99.90
38726;DHT22;24474;48.906;8.808;2022-12-10T06:53:54;1.10;99.90
38726;DHT22;24474;48.906;8.808;2022-12-10T06:56:20;1.10;99.90
38726;DHT22;24474;48.906;8.808;2022-12-10T06:58:46;1.10;99.90
38726;DHT22;24474;48.906;8.808;2022-12-10T07:01:13;1.10;99.90
38726;DHT22;24474;48.906;8.808;2022-12-10T07:03:39;1.10;99.90
38726;DHT22;24474;48.906;8.808;2022-12-10T07:06:06;1.10;99.90
38726;DHT22;24474;48.906;8.808;2022-12-10T07:08:33;1.10;99.90
38726;DHT22;24474;48.906;8.808;2022-12-10T07:11:03;1.10;99.90
38726;DHT22;24474;48.906;8.808;2022-12-10T07:13:30;1.10;99.90
38726;DHT22;24474;48.906;8.808;2022-12-10T07:15:56;1.10;99.90
38726;DHT22;24474;48.906;8.808;2022-12-10T07:18:21;1.10;99.90
38726;DHT22;24474;48.906;8.808;2022-12-10T07:20:47;1.00;99.90
38726;DHT22;24474;48.906;8.808;2022-12-10T07:23:12;1.00;99.90
38726;DHT22;24474;48.906;8.808;2022-12-10T07:25:37;1.00;99.90
38726;DHT22;24474;48.906;8.808;2022-12-10T07:28:04;1.00;99.90
38726;DHT22;24474;48.906;8.808;2022-12-10T07:30:30;1.00;99.90
38726;DHT22;24474;48.906;8.808;2022-12-10T07:32:55;1.10;99.90
38726;DHT22;24474;48.906;8.808;2022-12-10T07:35:21;1.10;99.90
38726;DHT22;24474;48.906;8.808;2022-12-10T07:37:46;1.10;99.90
38726;DHT22;24474;48.906;8.808;2022-12-10T07:40:12;1.10;99.90
38726;DHT22;24474;48.906;8.808;2022-12-10T07:42:38;1.10;99.90
38726;DHT22;24474;48.906;8.808;2022-12-10T07:45:03;1.00;99.90
38726;DHT22;24474;48.906;8.808;2022-12-10T07:47:29;1.00;99.90
38726;DHT22;24474;48.906;8.808;2022-12-10T07:49:54;1.10;99.90
38726;DHT22;24474;48.906;8.808;2022-12-10T07:52:20;1.00;99.90
38726;DHT22;24474;48.906;8.808;2022-12-10T07:54:46;1.10;99.90
38726;DHT22;24474;48.906;8.808;2022-12-10T07:57:11;1.10;99.90
38726;DHT22;24474;48.906;8.808;2022-12-10T07:59:37;1.10;99.90
38726;DHT22;24474;48.906;8.808;2022-12-10T08:02:02;1.10;99.90
38726;DHT22;24474;48.906;8.808;2022-12-10T08:04:28;1.10;99.90
38726;DHT22;24474;48.906;8.808;2022-12-10T08:06:55;1.10;99.90
38726;DHT22;24474;48.906;8.808;2022-12-10T08:09:21;1.10;99.90
38726;DHT22;24474;48.906;8.808;2022-12-10T08:11:46;1.10;99.90
38726;DHT22;24474;48.906;8.808;2022-12-10T08:14:12;1.10;99.90
38726;DHT22;24474;48.906;8.808;2022-12-10T08:16:37;1.00;99.90
38726;DHT22;24474;48.906;8.808;2022-12-10T08:19:03;1.00;99.90
38726;DHT22;24474;48.906;8.808;2022-12-10T08:21:29;1.00;99.90
38726;DHT22;24474;48.906;8.808;2022-12-10T08:23:55;1.00;99.90
38726;DHT22;24474;48.906;8.808;2022-12-10T08:26:22;1.10;99.90
38726;DHT22;24474;48.906;8.808;2022-12-10T08:28:50;1.10;99.90
38726;DHT22;24474;48.906;8.808;2022-12-10T08:31:16;1.10;99.90
38726;DHT22;24474;48.906;8.808;2022-12-10T08:33:42;1.10;99.90
38726;DHT22;24474;48.906;8.808;2022-12-10T08:36:08;1.20;99.90
38726;DHT22;24474;48.906;8.808;2022-12-10T08:38:34;1.10;99.90
38726;DHT22;24474;48.906;8.808;2022-12-10T08:40:59;1.10;99.90
38726;DHT22;24474;48.906;8.808;2022-12-10T08:43:30;1.10;99.90
38726;DHT22;24474;48.906;8.808;2022-12-10T08:45:57;1.20;99.90
38726;DHT22;24474;48.906;8.808;2022-12-10T08:48:23;1.10;99.90
38726;DHT22;24474;48.906;8.808;2022-12-10T08:50:49;1.20;99.90
38726;DHT22;24474;48.906;8.808;2022-12-10T08:53:14;1.10;99.90
38726;DHT22;24474;48.906;8.808;2022-12-10T08:55:40;1.20;99.90
38726;DHT22;24474;48.906;8.808;2022-12-10T08:58:06;1.20;99.90
38726;DHT22;24474;48.906;8.808;2022-12-10T09:00:31;1.20;99.90
38726;DHT22;24474;48.906;8.808;2022-12-10T09:02:57;1.20;99.90
38726;DHT22;24474;48.906;8.808;2022-12-10T09:05:22;1.20;99.90
38726;DHT22;24474;48.906;8.808;2022-12-10T09:07:48;1.20;99.90
38726;DHT22;24474;48.906;8.808;2022-12-10T09:10:13;1.20;99.90
38726;DHT22;24474;48.906;8.808;2022-12-10T09:12:39;1.20;99.90
38726;DHT22;24474;48.906;8.808;2022-12-10T09:15:05;1.20;99.90
38726;DHT22;24474;48.906;8.808;2022-12-10T09:17:31;1.30;99.90
38726;DHT22;24474;48.906;8.808;2022-12-10T09:19:56;1.30;99.90
38726;DHT22;24474;48.906;8.808;2022-12-10T09:22:23;1.30;99.90
38726;DHT22;24474;48.906;8.808;2022-12-10T09:24:49;1.30;99.90
38726;DHT22;24474;48.906;8.808;2022-12-10T09:27:14;1.20;99.90
38726;DHT22;24474;48.906;8.808;2022-12-10T09:29:40;1.20;99.90
38726;DHT22;24474;48.906;8.808;2022-12-10T09:32:05;1.20;99.90
38726;DHT22;24474;48.906;8.808;2022-12-10T09:34:31;1.30;99.90
38726;DHT22;24474;48.906;8.808;2022-12-10T09:36:56;1.30;99.90
38726;DHT22;24474;48.906;8.808;2022-12-10T09:39:22;1.30;99.90
38726;DHT22;24474;48.906;8.808;2022-12-10T09:46:58;1.30;99.90
38726;DHT22;24474;48.906;8.808;2022-12-10T09:52:15;1.40;99.90
38726;DHT22;24474;48.906;8.808;2022-12-10T09:54:43;1.40;99.90
38726;DHT22;24474;48.906;8.808;2022-12-10T09:57:20;1.40;99.90
38726;DHT22;24474;48.906;8.808;2022-12-10T09:59:46;1.30;99.90
38726;DHT22;24474;48.906;8.808;2022-12-10T10:02:20;1.30;99.90
38726;DHT22;24474;48.906;8.808;2022-12-10T10:04:46;1.40;99.90
38726;DHT22;24474;48.906;8.808;2022-12-10T10:07:17;1.40;99.90
38726;DHT22;24474;48.906;8.808;2022-12-10T10:09:44;1.40;99.90
38726;DHT22;24474;48.906;8.808;2022-12-10T10:12:13;1.40;99.90
38726;DHT22;24474;48.906;8.808;2022-12-10T10:14:43;1.40;99.90
38726;DHT22;24474;48.906;8.808;2022-12-10T10:17:16;1.40;99.90
38726;DHT22;24474;48.906;8.808;2022-12-10T10:19:44;1.40;99.90
38726;DHT22;24474;48.906;8.808;2022-12-10T10:22:10;1.40;99.90
38726;DHT22;24474;48.906;8.808;2022-12-10T10:24:37;1.50;99.90
38726;DHT22;24474;48.906;8.808;2022-12-10T10:27:12;1.50;99.90
38726;DHT22;24474;48.906;8.808;2022-12-10T10:29:39;1.50;99.90
38726;DHT22;24474;48.906;8.808;2022-12-10T10:34:45;1.60;99.90
38726;DHT22;24474;48.906;8.808;2022-12-10T10:37:14;1.60;99.90
38726;DHT22;24474;48.906;8.808;2022-12-10T10:39:40;1.60;99.90
38726;DHT22;24474;48.906;8.808;2022-12-10T10:42:21;1.60;99.90
38726;DHT22;24474;48.906;8.808;2022-12-10T10:44:48;1.60;99.90
38726;DHT22;24474;48.906;8.808;2022-12-10T10:50:12;1.60;99.90
38726;DHT22;24474;48.906;8.808;2022-12-10T10:52:48;1.60;99.90
38726;DHT22;24474;48.906;8.808;2022-12-10T10:55:32;1.60;99.90
38726;DHT22;24474;48.906;8.808;2022-12-10T10:58:00;1.50;99.90
38726;DHT22;24474;48.906;8.808;2022-12-10T11:00:26;1.50;99.90
38726;DHT22;24474;48.906;8.808;2022-12-10T11:02:52;1.60;99.90
38726;DHT22;24474;48.906;8.808;2022-12-10T11:05:21;1.50;99.90
38726;DHT22;24474;48.906;8.808;2022-12-10T11:07:52;1.50;99.90
38726;DHT22;24474;48.906;8.808;2022-12-10T11:10:22;1.60;99.90
38726;DHT22;24474;48.906;8.808;2022-12-10T11:12:58;1.60;99.90
38726;DHT22;24474;48.906;8.808;2022-12-10T11:15:32;1.60;99.90
38726;DHT22;24474;48.906;8.808;2022-12-10T11:17:59;1.60;99.90
38726;DHT22;24474;48.906;8.808;2022-12-10T11:20:27;1.60;99.90
38726;DHT22;24474;48.906;8.808;2022-12-10T11:22:54;1.60;99.90
38726;DHT22;24474;48.906;8.808;2022-12-10T11:25:23;1.60;99.90
38726;DHT22;24474;48.906;8.808;2022-12-10T11:30:54;1.60;99.90
38726;DHT22;24474;48.906;8.808;2022-12-10T11:33:35;1.50;99.90
38726;DHT22;24474;48.906;8.808;2022-12-10T11:38:44;1.50;99.90
38726;DHT22;24474;48.906;8.808;2022-12-10T11:41:16;1.50;99.90
38726;DHT22;24474;48.906;8.808;2022-12-10T11:44:00;1.60;99.90
38726;DHT22;24474;48.906;8.808;2022-12-10T11:52:20;1.50;99.90
38726;DHT22;24474;48.906;8.808;2022-12-10T11:57:17;1.60;99.90
38726;DHT22;24474;48.906;8.808;2022-12-10T12:03:15;1.60;99.90
38726;DHT22;24474;48.906;8.808;2022-12-10T12:05:27;1.60;99.90
38726;DHT22;24474;48.906;8.808;2022-12-10T12:13:41;1.60;99.90
38726;DHT22;24474;48.906;8.808;2022-12-10T12:16:13;1.60;99.90
38726;DHT22;24474;48.906;8.808;2022-12-10T12:18:42;1.60;99.90
38726;DHT22;24474;48.906;8.808;2022-12-10T12:21:13;1.60;99.90
38726;DHT22;24474;48.906;8.808;2022-12-10T12:24:29;1.70;99.90
38726;DHT22;24474;48.906;8.808;2022-12-10T12:26:27;1.70;99.90
38726;DHT22;24474;48.906;8.808;2022-12-10T12:28:56;1.70;99.90
38726;DHT22;24474;48.906;8.808;2022-12-10T12:31:29;1.70;99.90
38726;DHT22;24474;48.906;8.808;2022-12-10T12:33:59;1.70;99.90
38726;DHT22;24474;48.906;8.808;2022-12-10T12:36:27;1.70;99.90
38726;DHT22;24474;48.906;8.808;2022-12-10T12:49:40;1.60;99.90
38726;DHT22;24474;48.906;8.808;2022-12-10T12:54:47;1.60;99.90
38726;DHT22;24474;48.906;8.808;2022-12-10T12:57:14;1.60;99.90
38726;DHT22;24474;48.906;8.808;2022-12-10T12:59:51;1.60;99.90
38726;DHT22;24474;48.906;8.808;2022-12-10T13:05:03;1.50;99.90
38726;DHT22;24474;48.906;8.808;2022-12-10T13:07:34;1.50;99.90
38726;DHT22;24474;48.906;8.808;2022-12-10T13:13:21;1.50;99.90
38726;DHT22;24474;48.906;8.808;2022-12-10T13:15:21;1.60;99.90
38726;DHT22;24474;48.906;8.808;2022-12-10T13:18:00;1.50;99.90
38726;DHT22;24474;48.906;8.808;2022-12-10T13:20:33;1.50;99.90
38726;DHT22;24474;48.906;8.808;2022-12-10T13:23:00;1.50;99.90
38726;DHT22;24474;48.906;8.808;2022-12-10T13:28:40;1.50;99.90
38726;DHT22;24474;48.906;8.808;2022-12-10T13:31:16;1.50;99.90
38726;DHT22;24474;48.906;8.808;2022-12-10T13:33:53;1.50;99.90
38726;DHT22;24474;48.906;8.808;2022-12-10T13:36:35;1.50;99.90
38726;DHT22;24474;48.906;8.808;2022-12-10T13:41:30;1.50;99.90
38726;DHT22;24474;48.906;8.808;2022-12-10T13:44:34;1.50;99.90
38726;DHT22;24474;48.906;8.808;2022-12-10T13:47:24;1.50;99.90
38726;DHT22;24474;48.906;8.808;2022-12-10T13:49:52;1.50;99.90
38726;DHT22;24474;48.906;8.808;2022-12-10T13:52:19;1.50;99.90
38726;DHT22;24474;48.906;8.808;2022-12-10T13:54:53;1.50;99.90
38726;DHT22;24474;48.906;8.808;2022-12-10T14:00:14;1.40;99.90
38726;DHT22;24474;48.906;8.808;2022-12-10T14:07:52;1.40;99.90
38726;DHT22;24474;48.906;8.808;2022-12-10T14:10:19;1.40;99.90
38726;DHT22;24474;48.906;8.808;2022-12-10T14:12:46;1.50;99.90
38726;DHT22;24474;48.906;8.808;2022-12-10T14:15:25;1.40;99.90
38726;DHT22;24474;48.906;8.808;2022-12-10T14:17:54;1.50;99.90
38726;DHT22;24474;48.906;8.808;2022-12-10T14:20:21;1.40;99.90
38726;DHT22;24474;48.906;8.808;2022-12-10T14:22:51;1.40;99.90
38726;DHT22;24474;48.906;8.808;2022-12-10T14:25:18;1.40;99.90
38726;DHT22;24474;48.906;8.808;2022-12-10T14:27:46;1.40;99.90
38726;DHT22;24474;48.906;8.808;2022-12-10T14:30:16;1.40;99.90
38726;DHT22;24474;48.906;8.808;2022-12-10T14:32:42;1.40;99.90
38726;DHT22;24474;48.906;8.808;2022-12-10T14:35:12;1.40;99.90
38726;DHT22;24474;48.906;8.808;2022-12-10T14:37:39;1.40;99.90
38726;DHT22;24474;48.906;8.808;2022-12-10T14:40:06;1.40;99.90
38726;DHT22;24474;48.906;8.808;2022-12-10T14:42:32;1.40;99.90
38726;DHT22;24474;48.906;8.808;2022-12-10T14:44:59;1.30;99.90
38726;DHT22;24474;48.906;8.808;2022-12-10T14:47:25;1.30;99.90
38726;DHT22;24474;48.906;8.808;2022-12-10T14:49:53;1.30;99.90
38726;DHT22;24474;48.906;8.808;2022-12-10T14:52:40;1.30;99.90
38726;DHT22;24474;48.906;8.808;2022-12-10T14:55:14;1.30;99.90
38726;DHT22;24474;48.906;8.808;2022-12-10T14:57:42;1.30;99.90
38726;DHT22;24474;48.906;8.808;2022-12-10T15:00:21;1.30;99.90
38726;DHT22;24474;48.906;8.808;2022-12-10T15:03:07;1.40;99.90
38726;DHT22;24474;48.906;8.808;2022-12-10T15:05:33;1.40;99.90
38726;DHT22;24474;48.906;8.808;2022-12-10T15:10:41;1.40;99.90
38726;DHT22;24474;48.906;8.808;2022-12-10T15:13:23;1.30;99.90
38726;DHT22;24474;48.906;8.808;2022-12-10T15:15:50;1.40;99.90
38726;DHT22;24474;48.906;8.808;2022-12-10T15:18:17;1.40;99.90
38726;DHT22;24474;48.906;8.808;2022-12-10T15:26:28;1.30;99.90
38726;DHT22;24474;48.906;8.808;2022-12-10T15:28:36;1.30;99.90
38726;DHT22;24474;48.906;8.808;2022-12-10T15:33:50;1.30;99.90
38726;DHT22;24474;48.906;8.808;2022-12-10T15:36:18;1.20;99.90
38726;DHT22;24474;48.906;8.808;2022-12-10T15:38:45;1.30;99.90
38726;DHT22;24474;48.906;8.808;2022-12-10T15:41:21;1.30;99.90
38726;DHT22;24474;48.906;8.808;2022-12-10T15:43:58;1.30;99.90
38726;DHT22;24474;48.906;8.808;2022-12-10T15:46:24;1.30;99.90
38726;DHT22;24474;48.906;8.808;2022-12-10T15:48:49;1.20;99.90
38726;DHT22;24474;48.906;8.808;2022-12-10T15:51:15;1.20;99.90
38726;DHT22;24474;48.906;8.808;2022-12-10T15:53:40;1.10;99.90
38726;DHT22;24474;48.906;8.808;2022-12-10T15:56:06;1.10;99.90
38726;DHT22;24474;48.906;8.808;2022-12-10T15:58:32;1.10;99.90
38726;DHT22;24474;48.906;8.808;2022-12-10T16:00:57;1.10;99.90
38726;DHT22;24474;48.906;8.808;2022-12-10T16:03:23;1.00;99.90
38726;DHT22;24474;48.906;8.808;2022-12-10T16:05:52;1.00;99.90
38726;DHT22;24474;48.906;8.808;2022-12-10T16:08:24;1.00;99.90
38726;DHT22;24474;48.906;8.808;2022-12-10T16:10:52;1.00;99.90
38726;DHT22;24474;48.906;8.808;2022-12-10T16:13:23;1.00;99.90
38726;DHT22;24474;48.906;8.808;2022-12-10T16:15:59;1.00;99.90
38726;DHT22;24474;48.906;8.808;2022-12-10T16:18:25;1.00;99.90
38726;DHT22;24474;48.906;8.808;2022-12-10T16:20:51;0.90;99.90
38726;DHT22;24474;48.906;8.808;2022-12-10T16:23:18;1.00;99.90
38726;DHT22;24474;48.906;8.808;2022-12-10T16:25:45;1.00;99.90
38726;DHT22;24474;48.906;8.808;2022-12-10T16:28:19;1.00;99.90
38726;DHT22;24474;48.906;8.808;2022-12-10T16:33:10;1.00;99.90
38726;DHT22;24474;48.906;8.808;2022-12-10T16:35:37;1.00;99.90
38726;DHT22;24474;48.906;8.808;2022-12-10T16:38:03;1.00;99.90
38726;DHT22;24474;48.906;8.808;2022-12-10T16:40:29;1.00;99.90
38726;DHT22;24474;48.906;8.808;2022-12-10T16:42:55;1.00;99.90
38726;DHT22;24474;48.906;8.808;2022-12-10T16:47:46;1.00;99.90
38726;DHT22;24474;48.906;8.808;2022-12-10T16:50:12;1.00;99.90
38726;DHT22;24474;48.906;8.808;2022-12-10T16:52:38;1.00;99.90
38726;DHT22;24474;48.906;8.808;2022-12-10T16:55:06;1.00;99.90
38726;DHT22;24474;48.906;8.808;2022-12-10T16:57:32;1.00;99.90
38726;DHT22;24474;48.906;8.808;2022-12-10T17:00:00;1.00;99.90
38726;DHT22;24474;48.906;8.808;2022-12-10T17:02:26;1.00;99.90
38726;DHT22;24474;48.906;8.808;2022-12-10T17:04:51;1.00;99.90
38726;DHT22;24474;48.906;8.808;2022-12-10T17:07:17;0.90;99.90
38726;DHT22;24474;48.906;8.808;2022-12-10T17:09:42;1.00;99.90
38726;DHT22;24474;48.906;8.808;2022-12-10T17:12:08;1.00;99.90
38726;DHT22;24474;48.906;8.808;2022-12-10T17:14:41;0.90;99.90
38726;DHT22;24474;48.906;8.808;2022-12-10T17:17:10;0.90;99.90
38726;DHT22;24474;48.906;8.808;2022-12-10T17:19:37;0.90;99.90
38726;DHT22;24474;48.906;8.808;2022-12-10T17:22:04;0.90;99.90
38726;DHT22;24474;48.906;8.808;2022-12-10T17:24:30;0.90;99.90
38726;DHT22;24474;48.906;8.808;2022-12-10T17:26:58;0.90;99.90
38726;DHT22;24474;48.906;8.808;2022-12-10T17:31:50;0.80;99.90
38726;DHT22;24474;48.906;8.808;2022-12-10T17:34:16;0.90;99.90
38726;DHT22;24474;48.906;8.808;2022-12-10T17:36:42;0.80;99.90
38726;DHT22;24474;48.906;8.808;2022-12-10T17:39:14;0.80;99.90
38726;DHT22;24474;48.906;8.808;2022-12-10T17:41:40;0.80;99.90